createdAt,value
2022-08-24T00:01:55.677Z,85893.88
2022-08-24T00:04:23.837Z,85891.75
2022-08-24T00:06:52.440Z,85900.19
2022-08-24T00:09:20.256Z,85889.53
2022-08-24T00:11:48.023Z,85881.69
2022-08-24T00:14:16.548Z,85881.88
2022-08-24T00:16:44.256Z,85876.00
2022-08-24T00:19:12.499Z,85882.97
2022-08-24T00:21:42.822Z,85890.03
2022-08-24T00:24:11.734Z,85874.47
2022-08-24T00:26:38.875Z,85856.94
2022-08-24T00:29:07.715Z,85840.97
2022-08-24T00:31:35.697Z,85830.19
2022-08-24T00:34:03.782Z,85887.66
2022-08-24T00:36:31.231Z,85884.41
2022-08-24T00:38:59.154Z,85865.63
2022-08-24T00:41:27.992Z,85875.00
2022-08-24T00:43:58.689Z,85884.50
2022-08-24T00:46:47.733Z,85883.06
2022-08-24T00:49:23.992Z,85877.88
2022-08-24T00:52:00.823Z,85880.69
2022-08-24T00:54:33.925Z,85862.06
2022-08-24T00:57:06.978Z,85890.13
2022-08-24T00:59:53.143Z,85869.75
2022-08-24T01:02:27.055Z,85882.47
2022-08-24T01:04:57.595Z,85884.34
2022-08-24T01:07:28.129Z,85890.72
2022-08-24T01:09:59.683Z,85871.59
2022-08-24T01:12:30.115Z,85885.00
2022-08-24T01:15:00.589Z,85864.13
2022-08-24T01:17:47.692Z,85865.50
2022-08-24T01:20:16.364Z,85866.38
2022-08-24T01:23:16.549Z,85897.78
2022-08-24T01:25:45.399Z,85898.63
2022-08-24T01:28:19.775Z,85875.25
2022-08-24T01:30:55.871Z,85899.31
2022-08-24T01:33:26.825Z,85881.53
2022-08-24T01:36:02.974Z,85886.22
2022-08-24T01:38:34.327Z,85902.22
2022-08-24T01:41:05.211Z,85903.41
2022-08-24T01:43:34.424Z,85880.25
2022-08-24T01:46:07.442Z,85882.97
2022-08-24T01:48:34.815Z,85897.63
2022-08-24T01:51:02.784Z,85903.66
2022-08-24T01:53:30.693Z,85908.25
2022-08-24T01:55:58.181Z,85900.19
2022-08-24T01:58:25.583Z,85871.16
2022-08-24T02:00:54.372Z,85905.94
2022-08-24T02:03:29.662Z,85880.41
2022-08-24T02:06:01.578Z,85878.41
2022-08-24T02:08:30.172Z,85873.63
2022-08-24T02:10:58.758Z,85895.56
2022-08-24T02:13:27.994Z,85884.88
2022-08-24T02:15:55.522Z,85890.31
2022-08-24T02:18:24.579Z,85882.56
2022-08-24T02:20:53.415Z,85884.59
2022-08-24T02:23:22.990Z,85891.31
2022-08-24T02:25:50.187Z,85889.13
2022-08-24T02:28:17.646Z,85888.16
2022-08-24T02:30:46.227Z,85891.56
2022-08-24T02:33:14.926Z,85899.19
2022-08-24T02:35:42.534Z,85880.59
2022-08-24T02:38:11.076Z,85863.25
2022-08-24T02:40:40.207Z,85877.69
2022-08-24T02:43:08.251Z,85878.38
2022-08-24T02:45:50.024Z,85840.56
2022-08-24T02:48:21.464Z,85860.81
2022-08-24T02:50:52.881Z,85894.22
2022-08-24T02:53:24.577Z,85871.63
2022-08-24T02:55:52.414Z,85883.69
2022-08-24T02:58:20.789Z,85905.78
2022-08-24T03:00:49.896Z,85896.25
2022-08-24T03:03:20.215Z,85895.94
2022-08-24T03:05:48.727Z,85883.53
2022-08-24T03:08:42.453Z,85906.47
2022-08-24T03:11:19.016Z,85908.16
2022-08-24T03:13:48.746Z,85910.28
2022-08-24T03:16:18.940Z,85910.19
2022-08-24T03:18:48.900Z,85892.00
2022-08-24T03:21:18.325Z,85872.81
2022-08-24T03:23:51.089Z,85895.22
2022-08-24T03:26:18.483Z,85880.19
2022-08-24T03:28:49.590Z,85896.34
2022-08-24T03:31:19.081Z,85880.44
2022-08-24T03:33:51.049Z,85901.22
2022-08-24T03:36:20.580Z,85857.22
2022-08-24T03:38:50.188Z,85920.00
2022-08-24T03:41:26.436Z,85911.75
2022-08-24T03:43:59.737Z,85920.25
2022-08-24T03:46:29.216Z,85918.50
2022-08-24T03:48:59.197Z,85900.06
2022-08-24T03:51:28.607Z,85881.78
2022-08-24T03:54:01.905Z,85884.41
2022-08-24T03:56:30.159Z,85798.06
2022-08-24T03:58:57.798Z,85890.97
2022-08-24T04:01:29.497Z,85894.03
2022-08-24T04:03:59.271Z,85927.47
2022-08-24T04:06:31.978Z,85926.50
2022-08-24T04:08:59.824Z,85930.19
2022-08-24T04:11:29.540Z,85947.28
2022-08-24T04:13:58.742Z,85931.44
2022-08-24T04:16:27.527Z,85939.56
2022-08-24T04:19:05.451Z,85923.97
2022-08-24T04:21:37.122Z,85929.16
2022-08-24T04:24:09.571Z,85917.34
2022-08-24T04:26:45.210Z,85934.78
2022-08-24T04:29:19.652Z,85940.13
2022-08-24T04:31:52.169Z,85931.97
2022-08-24T04:34:21.425Z,85913.44
2022-08-24T04:36:49.201Z,85919.72
2022-08-24T04:39:17.321Z,85937.50
2022-08-24T04:42:03.838Z,85926.50
2022-08-24T04:44:37.021Z,85931.63
2022-08-24T04:47:08.022Z,85934.34
2022-08-24T04:49:38.537Z,85926.50
2022-08-24T04:52:08.368Z,85943.97
2022-08-24T04:54:35.965Z,85939.72
2022-08-24T04:57:15.932Z,85937.94
2022-08-24T04:59:46.851Z,85924.56
2022-08-24T05:02:15.647Z,85942.00
2022-08-24T05:04:46.676Z,85918.88
2022-08-24T05:07:14.550Z,85930.53
2022-08-24T05:09:44.157Z,85939.28
2022-08-24T05:12:12.341Z,85922.78
2022-08-24T05:14:46.804Z,85951.78
2022-08-24T05:17:14.910Z,85943.03
2022-08-24T05:19:43.702Z,85913.44
2022-08-24T05:22:12.198Z,85915.75
2022-08-24T05:24:44.868Z,85938.63
2022-08-24T05:27:14.293Z,85842.03
2022-08-24T05:29:42.256Z,85895.59
2022-08-24T05:32:11.568Z,85906.28
2022-08-24T05:34:39.400Z,85862.50
2022-08-24T05:37:08.018Z,85924.16
2022-08-24T05:39:45.660Z,85928.50
2022-08-24T05:42:15.489Z,85913.09
2022-08-24T05:44:48.031Z,85900.69
2022-08-24T05:47:23.617Z,85913.28
2022-08-24T05:49:55.308Z,85896.59
2022-08-24T05:52:24.327Z,85935.88
2022-08-24T05:54:54.027Z,85930.47
2022-08-24T05:57:24.518Z,85935.88
2022-08-24T06:00:04.559Z,85946.75
2022-08-24T06:02:44.417Z,85959.19
2022-08-24T06:05:12.407Z,85944.63
2022-08-24T06:07:41.107Z,85942.19
2022-08-24T06:10:35.344Z,85948.66
2022-08-24T06:13:00.387Z,85947.81
2022-08-24T06:15:28.892Z,85968.31
2022-08-24T06:17:56.728Z,85927.91
2022-08-24T06:20:25.872Z,85969.41
2022-08-24T06:22:54.049Z,85941.16
2022-08-24T06:25:42.021Z,85954.09
2022-08-24T06:28:10.612Z,85956.03
2022-08-24T06:30:38.119Z,85980.94
2022-08-24T06:33:27.278Z,85978.50
2022-08-24T06:35:57.883Z,85985.56
2022-08-24T06:38:26.806Z,85945.94
2022-08-24T06:40:54.573Z,85984.03
2022-08-24T06:43:24.802Z,85990.00
2022-08-24T06:45:55.757Z,85928.16
2022-08-24T06:48:31.342Z,85955.09
2022-08-24T06:51:00.307Z,85978.41
2022-08-24T06:53:29.209Z,85940.06
2022-08-24T06:55:59.675Z,85975.78
2022-08-24T06:58:29.443Z,85952.38
2022-08-24T07:00:58.221Z,85940.31
2022-08-24T07:03:27.123Z,85934.69
2022-08-24T07:06:08.312Z,85927.03
2022-08-24T07:08:43.950Z,85901.88
2022-08-24T07:11:15.807Z,85973.34
2022-08-24T07:13:47.946Z,85956.56
2022-08-24T07:16:20.578Z,85951.81
2022-08-24T07:18:53.813Z,85975.78
2022-08-24T07:21:22.443Z,85963.16
2022-08-24T07:23:56.102Z,85952.25
2022-08-24T07:26:27.185Z,85928.19
2022-08-24T07:29:07.024Z,85942.91
2022-08-24T07:31:41.670Z,85929.91
2022-08-24T07:34:16.193Z,85949.34
2022-08-24T07:36:44.990Z,85953.91
2022-08-24T07:39:13.920Z,85908.03
2022-08-24T07:42:09.033Z,85956.75
2022-08-24T07:44:32.183Z,85938.41
2022-08-24T07:47:15.415Z,85922.94
2022-08-24T07:49:49.565Z,85909.25
2022-08-24T07:52:18.184Z,85994.19
2022-08-24T07:54:46.855Z,85991.63
2022-08-24T07:57:14.337Z,85937.03
2022-08-24T07:59:44.728Z,85981.75
2022-08-24T08:02:12.415Z,85950.94
2022-08-24T08:04:42.913Z,85985.66
2022-08-24T08:07:10.915Z,85996.84
2022-08-24T08:09:38.980Z,85993.91
2022-08-24T08:12:11.316Z,85990.75
2022-08-24T08:14:50.112Z,85962.50
2022-08-24T08:17:18.110Z,85957.94
2022-08-24T08:19:45.880Z,86001.75
2022-08-24T08:22:32.958Z,85966.56
2022-08-24T08:25:29.796Z,85939.59
2022-08-24T08:28:04.305Z,85975.63
2022-08-24T08:30:42.239Z,85995.38
2022-08-24T08:33:10.967Z,85999.63
2022-08-24T08:35:41.866Z,85976.13
2022-08-24T08:38:13.016Z,85982.44
2022-08-24T08:40:46.550Z,85999.44
2022-08-24T08:43:18.058Z,86000.31
2022-08-24T08:45:54.869Z,86009.34
2022-08-24T08:49:11.407Z,86004.78
2022-08-24T08:52:07.218Z,86007.41
2022-08-24T08:55:00.222Z,85991.78
2022-08-24T08:57:50.950Z,86004.13
2022-08-24T09:00:24.535Z,86010.75
2022-08-24T09:03:17.894Z,85968.69
2022-08-24T09:06:35.440Z,85983.56
2022-08-24T09:09:13.272Z,86002.19
2022-08-24T09:11:50.640Z,85996.25
2022-08-24T09:14:36.743Z,85990.03
2022-08-24T09:17:24.577Z,85997.88
2022-08-24T09:20:06.661Z,85997.97
2022-08-24T09:22:43.890Z,85976.28
2022-08-24T09:25:29.499Z,85986.44
2022-08-24T09:28:14.818Z,85985.72
2022-08-24T09:31:05.522Z,85988.22
2022-08-24T09:33:43.634Z,85990.59
2022-08-24T09:36:30.647Z,85972.78
2022-08-24T09:39:15.457Z,85976.78
2022-08-24T09:41:46.618Z,85972.50
2022-08-24T09:44:45.215Z,85972.19
2022-08-24T09:47:37.542Z,85970.44
2022-08-24T09:50:29.880Z,85977.09
2022-08-24T09:53:20.007Z,85978.94
2022-08-24T09:56:08.012Z,85961.06
2022-08-24T09:59:06.679Z,85983.69
2022-08-24T10:01:58.414Z,85986.63
2022-08-24T10:04:29.203Z,85981.19
2022-08-24T10:07:16.992Z,85977.03
2022-08-24T10:10:09.599Z,85973.22
2022-08-24T10:12:56.542Z,85964.16
2022-08-24T10:15:38.026Z,85964.44
2022-08-24T10:18:16.385Z,85952.91
2022-08-24T10:21:00.184Z,85926.47
2022-08-24T10:24:13.608Z,85960.69
2022-08-24T10:27:02.567Z,85956.25
2022-08-24T10:29:39.618Z,85952.41
2022-08-24T10:32:40.939Z,85962.34
2022-08-24T10:35:18.052Z,85950.78
2022-08-24T10:38:23.401Z,85951.78
2022-08-24T10:41:40.375Z,85947.25
2022-08-24T10:44:26.561Z,85947.91
2022-08-24T10:47:07.463Z,85916.41
2022-08-24T10:49:38.132Z,85944.03
2022-08-24T10:52:33.037Z,85918.38
2022-08-24T10:55:22.593Z,85914.75
2022-08-24T10:58:20.299Z,85939.38
2022-08-24T11:00:48.786Z,85935.53
2022-08-24T11:03:27.654Z,85943.69
2022-08-24T11:05:58.785Z,85953.53
2022-08-24T11:08:29.453Z,85951.31
2022-08-24T11:11:13.506Z,85907.47
2022-08-24T11:14:00.507Z,85948.59
2022-08-24T11:16:42.064Z,85905.97
2022-08-24T11:19:13.801Z,85943.53
2022-08-24T11:21:50.007Z,85946.72
2022-08-24T11:24:24.626Z,85949.44
2022-08-24T11:26:57.100Z,85956.50
2022-08-24T11:29:49.904Z,85966.50
2022-08-24T11:32:37.836Z,85962.91
2022-08-24T11:35:18.081Z,85968.56
2022-08-24T11:37:47.485Z,85983.63
2022-08-24T11:40:17.148Z,85947.06
2022-08-24T11:43:06.093Z,85976.13
2022-08-24T11:45:54.764Z,85973.84
2022-08-24T11:48:43.724Z,85972.06
2022-08-24T11:51:15.714Z,85972.38
2022-08-24T11:54:20.794Z,85961.28
2022-08-24T11:57:08.613Z,85954.28
2022-08-24T11:59:50.928Z,85954.94
2022-08-24T12:02:24.414Z,85940.69
2022-08-24T12:05:02.909Z,85903.16
2022-08-24T12:07:51.798Z,85933.28
2022-08-24T12:10:38.373Z,85942.22
2022-08-24T12:13:32.219Z,85937.59
2022-08-24T12:16:28.180Z,85935.56
2022-08-24T12:19:36.740Z,85923.81
2022-08-24T12:22:15.845Z,85923.91
2022-08-24T12:24:48.880Z,85838.19
2022-08-24T12:27:29.797Z,85859.31
2022-08-24T12:30:18.133Z,85877.03
2022-08-24T12:32:51.634Z,85901.69
2022-08-24T12:35:41.544Z,85912.03
2022-08-24T12:38:29.699Z,85895.44
2022-08-24T12:41:17.766Z,85892.13
2022-08-24T12:43:52.596Z,85895.28
2022-08-24T12:46:27.023Z,85896.03
2022-08-24T12:49:03.429Z,85910.81
2022-08-24T12:52:08.613Z,85921.97
2022-08-24T12:54:42.177Z,85917.75
2022-08-24T12:57:27.723Z,85921.88
2022-08-24T13:00:08.199Z,85882.25
2022-08-24T13:02:47.711Z,85924.16
2022-08-24T13:05:19.893Z,85908.47
2022-08-24T13:07:56.465Z,85909.16
2022-08-24T13:10:24.436Z,85917.72
2022-08-24T13:13:10.625Z,85901.19
2022-08-24T13:15:38.733Z,85913.84
2022-08-24T13:18:09.690Z,85909.84
2022-08-24T13:20:38.373Z,85909.91
2022-08-24T13:23:11.637Z,85909.28
2022-08-24T13:25:42.914Z,85907.28
2022-08-24T13:28:33.252Z,85901.59
2022-08-24T13:31:00.906Z,85908.09
2022-08-24T13:33:43.353Z,85912.81
2022-08-24T13:36:32.796Z,85915.09
2022-08-24T13:39:21.543Z,85906.44
2022-08-24T13:41:49.810Z,85929.94
2022-08-24T13:44:23.846Z,85933.41
2022-08-24T13:47:01.646Z,85927.63
2022-08-24T13:50:04.020Z,85927.44
2022-08-24T13:52:44.997Z,85929.97
2022-08-24T13:55:31.718Z,85926.41
2022-08-24T13:58:19.241Z,85934.88
2022-08-24T14:01:25.342Z,85930.97
2022-08-24T14:04:24.541Z,85897.34
2022-08-24T14:07:11.633Z,85934.81
2022-08-24T14:10:03.464Z,85924.88
2022-08-24T14:12:32.639Z,85925.09
2022-08-24T14:15:17.811Z,85838.19
2022-08-24T14:17:55.570Z,85913.56
2022-08-24T14:21:01.032Z,85922.63
2022-08-24T14:24:05.868Z,85926.72
2022-08-24T14:27:00.517Z,85917.88
2022-08-24T14:29:49.034Z,85916.00
2022-08-24T14:32:47.139Z,85917.00
2022-08-24T14:35:23.341Z,85899.50
2022-08-24T14:38:00.566Z,85922.53
2022-08-24T14:40:41.951Z,85910.97
2022-08-24T14:43:30.070Z,85912.59
2022-08-24T14:46:01.834Z,85906.59
2022-08-24T14:48:43.126Z,85910.56
2022-08-24T14:51:58.688Z,85905.03
2022-08-24T14:55:03.911Z,85903.22
2022-08-24T14:57:50.784Z,85824.97
2022-08-24T15:00:22.536Z,85868.66
2022-08-24T15:02:56.386Z,85906.38
2022-08-24T15:05:33.571Z,85906.41
2022-08-24T15:08:03.016Z,85854.47
2022-08-24T15:10:42.783Z,85905.72
2022-08-24T15:13:51.426Z,85909.09
2022-08-24T15:16:31.066Z,85912.97
2022-08-24T15:19:27.691Z,85908.69
2022-08-24T15:22:06.616Z,85918.19
2022-08-24T15:24:40.688Z,85912.41
2022-08-24T15:27:23.758Z,85911.28
2022-08-24T15:30:01.142Z,85908.78
2022-08-24T15:32:49.322Z,85876.34
2022-08-24T15:35:32.623Z,85892.41
2022-08-24T15:38:26.310Z,85890.16
2022-08-24T15:41:24.633Z,85904.63
2022-08-24T15:43:59.277Z,85917.50
2022-08-24T15:46:32.140Z,85877.00
2022-08-24T15:49:14.643Z,85834.78
2022-08-24T15:51:53.927Z,85905.50
2022-08-24T15:54:34.396Z,85908.13
2022-08-24T15:57:38.635Z,85912.72
2022-08-24T16:00:40.413Z,85865.72
2022-08-24T16:03:25.254Z,85920.34
2022-08-24T16:05:56.389Z,85925.34
2022-08-24T16:08:24.750Z,85748.16
2022-08-24T16:10:55.749Z,85915.25
2022-08-24T16:13:32.323Z,85885.38
2022-08-24T16:16:07.229Z,85916.72
2022-08-24T16:18:53.794Z,85908.53
2022-08-24T16:21:38.399Z,85941.94
2022-08-24T16:24:09.798Z,85931.31
2022-08-24T16:26:46.264Z,85960.00
2022-08-24T16:29:35.554Z,85974.78
2022-08-24T16:32:38.311Z,85971.19
2022-08-24T16:35:20.731Z,85980.53
2022-08-24T16:37:48.721Z,85967.22
2022-08-24T16:40:16.697Z,85925.38
2022-08-24T16:42:45.727Z,85958.16
2022-08-24T16:45:18.506Z,85974.63
2022-08-24T16:47:47.658Z,85987.31
2022-08-24T16:50:18.675Z,85965.81
2022-08-24T16:52:47.061Z,85974.63
2022-08-24T16:55:14.856Z,85965.16
2022-08-24T16:57:43.385Z,85983.34
2022-08-24T17:00:17.748Z,85971.72
2022-08-24T17:02:48.424Z,85991.47
2022-08-24T17:05:18.058Z,85993.09
2022-08-24T17:07:46.732Z,85967.75
2022-08-24T17:10:16.946Z,85950.66
2022-08-24T17:12:44.714Z,85985.88
2022-08-24T17:15:13.718Z,85968.59
2022-08-24T17:17:41.850Z,85988.38
2022-08-24T17:20:11.260Z,85993.66
2022-08-24T17:22:39.564Z,85947.72
2022-08-24T17:25:08.058Z,85945.59
2022-08-24T17:27:36.410Z,85945.13
2022-08-24T17:30:05.917Z,85953.56
2022-08-24T17:32:34.402Z,85990.53
2022-08-24T17:35:03.423Z,85988.88
2022-08-24T17:37:31.746Z,85995.88
2022-08-24T17:40:00.702Z,85983.41
2022-08-24T17:42:49.547Z,85956.75
2022-08-24T17:45:17.814Z,85977.69
2022-08-24T17:47:45.711Z,85986.56
2022-08-24T17:50:15.859Z,86007.44
2022-08-24T17:52:47.261Z,85985.47
2022-08-24T17:55:17.240Z,85997.53
2022-08-24T17:57:52.182Z,86005.00
2022-08-24T18:00:19.741Z,85946.88
2022-08-24T18:02:47.621Z,86015.97
2022-08-24T18:05:15.050Z,86007.81
2022-08-24T18:07:57.953Z,86007.53
2022-08-24T18:10:32.333Z,85979.38
2022-08-24T18:13:02.734Z,86016.09
2022-08-24T18:15:36.443Z,85976.72
2022-08-24T18:18:08.850Z,86025.78
2022-08-24T18:20:41.143Z,85982.34
2022-08-24T18:23:11.568Z,85973.44
2022-08-24T18:25:47.200Z,86007.94
2022-08-24T18:28:17.462Z,85995.56
2022-08-24T18:30:45.834Z,86015.19
2022-08-24T18:33:13.799Z,85991.19
2022-08-24T18:35:42.211Z,85990.13
2022-08-24T18:38:09.648Z,85974.19
2022-08-24T18:40:38.669Z,86020.34
2022-08-24T18:43:06.334Z,86029.53
2022-08-24T18:45:34.760Z,86000.91
2022-08-24T18:48:02.610Z,86009.63
2022-08-24T18:50:33.570Z,86026.91
2022-08-24T18:53:01.245Z,86036.84
2022-08-24T18:55:29.558Z,86018.13
2022-08-24T18:57:57.224Z,86033.22
2022-08-24T19:00:24.932Z,86044.47
2022-08-24T19:03:04.748Z,86019.91
2022-08-24T19:05:33.060Z,86023.25
2022-08-24T19:08:01.406Z,86063.53
2022-08-24T19:10:33.811Z,86060.47
2022-08-24T19:13:21.869Z,86023.44
2022-08-24T19:15:51.282Z,86058.47
2022-08-24T19:18:21.394Z,86047.19
2022-08-24T19:20:52.699Z,86069.59
2022-08-24T19:23:26.342Z,86025.97
2022-08-24T19:25:54.949Z,86062.44
2022-08-24T19:28:24.715Z,86059.44
2022-08-24T19:31:02.468Z,86054.38
2022-08-24T19:33:42.748Z,86055.34
2022-08-24T19:36:10.667Z,86048.19
2022-08-24T19:38:38.449Z,85980.56
2022-08-24T19:41:12.789Z,86046.63
2022-08-24T19:44:01.102Z,86056.41
2022-08-24T19:46:29.242Z,86031.84
2022-08-24T19:48:56.594Z,85980.28
2022-08-24T19:51:24.930Z,86055.06
2022-08-24T19:53:52.241Z,86031.47
2022-08-24T19:56:21.343Z,86034.59
2022-08-24T19:59:14.896Z,86070.66
2022-08-24T20:01:43.912Z,86047.19
2022-08-24T20:04:12.584Z,86053.81
2022-08-24T20:06:41.891Z,86073.03
2022-08-24T20:09:09.989Z,86042.59
2022-08-24T20:11:39.825Z,86055.53
2022-08-24T20:14:08.208Z,86052.44
2022-08-24T20:16:39.970Z,86067.81
2022-08-24T20:19:07.692Z,86067.69
2022-08-24T20:21:35.949Z,86051.47
2022-08-24T20:24:04.296Z,86070.41
2022-08-24T20:26:39.410Z,86063.50
2022-08-24T20:29:07.931Z,86029.50
2022-08-24T20:31:36.755Z,86056.63
2022-08-24T20:34:06.383Z,86050.34
2022-08-24T20:36:40.746Z,86034.41
2022-08-24T20:39:11.741Z,86078.28
2022-08-24T20:41:40.411Z,86033.88
2022-08-24T20:44:10.498Z,86051.13
2022-08-24T20:46:40.185Z,86038.81
2022-08-24T20:49:08.725Z,86053.28
2022-08-24T20:51:43.437Z,86058.53
2022-08-24T20:54:11.559Z,86058.25
2022-08-24T20:56:39.790Z,86052.09
2022-08-24T20:59:12.628Z,86028.31
2022-08-24T21:01:44.231Z,86063.44
2022-08-24T21:04:12.360Z,86027.09
2022-08-24T21:06:42.021Z,86020.31
2022-08-24T21:09:14.573Z,86053.38
2022-08-24T21:11:43.643Z,86057.22
2022-08-24T21:14:11.315Z,86035.75
2022-08-24T21:16:41.338Z,86056.66
2022-08-24T21:19:17.901Z,86055.00
2022-08-24T21:21:47.381Z,86055.28
2022-08-24T21:24:16.160Z,86053.06
2022-08-24T21:26:43.874Z,85965.31
2022-08-24T21:29:11.910Z,86046.53
2022-08-24T21:31:40.839Z,86036.22
2022-08-24T21:34:28.005Z,86024.38
2022-08-24T21:36:57.382Z,86011.38
2022-08-24T21:39:25.166Z,86021.94
2022-08-24T21:41:53.978Z,86031.97
2022-08-24T21:44:22.059Z,86038.88
2022-08-24T21:46:52.201Z,85981.41
2022-08-24T21:49:23.536Z,86019.63
2022-08-24T21:51:52.973Z,86013.72
2022-08-24T21:54:20.877Z,85992.53
2022-08-24T21:56:49.659Z,85987.53
2022-08-24T21:59:17.274Z,86009.97
2022-08-24T22:01:46.571Z,86010.53
2022-08-24T22:04:14.170Z,86013.66
2022-08-24T22:06:42.421Z,86015.19
2022-08-24T22:09:09.989Z,85986.25
2022-08-24T22:11:37.988Z,85985.75
2022-08-24T22:14:05.613Z,86014.91
2022-08-24T22:16:37.009Z,85962.34
2022-08-24T22:19:11.922Z,85970.69
2022-08-24T22:21:45.991Z,85987.88
2022-08-24T22:24:15.499Z,86018.28
2022-08-24T22:26:44.571Z,85965.56
2022-08-24T22:29:13.315Z,85972.28
2022-08-24T22:31:42.708Z,85978.50
2022-08-24T22:34:19.494Z,85995.31
2022-08-24T22:36:49.211Z,85936.03
2022-08-24T22:39:17.517Z,85872.22
2022-08-24T22:41:45.667Z,85958.66
2022-08-24T22:44:19.253Z,85973.19
2022-08-24T22:46:54.017Z,85938.78
2022-08-24T22:49:28.321Z,85994.22
2022-08-24T22:51:57.214Z,85983.09
2022-08-24T22:54:33.131Z,85921.69
2022-08-24T22:57:02.295Z,85955.34
2022-08-24T22:59:35.802Z,85847.59
2022-08-24T23:02:10.569Z,85884.50
2022-08-24T23:04:39.323Z,85983.75
2022-08-24T23:07:08.266Z,85825.84
2022-08-24T23:09:44.424Z,85735.81
2022-08-24T23:12:16.877Z,85953.75
2022-08-24T23:14:45.006Z,85965.06
2022-08-24T23:17:13.701Z,85999.22
2022-08-24T23:20:00.893Z,85959.09
2022-08-24T23:22:31.731Z,85955.81
2022-08-24T23:25:00.983Z,86003.63
2022-08-24T23:27:32.994Z,85893.16
2022-08-24T23:30:12.159Z,85989.00
2022-08-24T23:32:40.798Z,85943.81
2022-08-24T23:35:09.447Z,85957.56
2022-08-24T23:37:37.080Z,85969.09
2022-08-24T23:40:07.679Z,85967.22
2022-08-24T23:42:36.115Z,85979.22
2022-08-24T23:45:04.053Z,85966.53
2022-08-24T23:47:36.101Z,85944.19
2022-08-24T23:50:10.674Z,85942.34
2022-08-24T23:52:40.295Z,85956.13
2022-08-24T23:55:21.673Z,85945.03
2022-08-24T23:57:51.979Z,85945.88
